createdAt,value
2023-02-01T00:00:12.124Z,17.16
2023-02-01T00:01:12.191Z,17.16
2023-02-01T00:02:12.274Z,17.17
2023-02-01T00:03:12.226Z,17.15
2023-02-01T00:04:12.224Z,17.18
2023-02-01T00:05:12.174Z,17.18
2023-02-01T00:06:12.182Z,17.18
2023-02-01T00:07:14.386Z,17.18
2023-02-01T00:08:12.248Z,17.16
2023-02-01T00:09:12.320Z,17.19
2023-02-01T00:10:12.368Z,17.18
2023-02-01T00:11:12.373Z,17.18
2023-02-01T00:12:12.404Z,17.17
2023-02-01T00:13:12.409Z,17.17
2023-02-01T00:14:12.444Z,17.17
2023-02-01T00:15:12.412Z,17.17
2023-02-01T00:16:12.448Z,17.16
2023-02-01T00:17:12.413Z,17.17
2023-02-01T00:18:12.482Z,17.17
2023-02-01T00:19:12.482Z,17.19
2023-02-01T00:20:12.568Z,17.18
2023-02-01T00:21:12.614Z,17.18
2023-02-01T00:22:12.693Z,17.18
2023-02-01T00:23:12.728Z,17.17
2023-02-01T00:24:12.770Z,17.18
2023-02-01T00:25:12.825Z,17.19
2023-02-01T00:26:12.946Z,17.18
2023-02-01T00:27:12.950Z,17.18
2023-02-01T00:28:12.964Z,17.17
2023-02-01T00:29:13.036Z,17.18
2023-02-01T00:30:13.049Z,17.20
2023-02-01T00:31:13.256Z,17.17
2023-02-01T00:32:13.254Z,17.20
2023-02-01T00:33:13.234Z,17.18
2023-02-01T00:34:13.297Z,17.19
2023-02-01T00:35:13.317Z,17.20
2023-02-01T00:36:13.362Z,17.18
2023-02-01T00:37:13.406Z,17.20
2023-02-01T00:38:13.477Z,17.21
2023-02-01T00:39:13.518Z,17.20
2023-02-01T00:40:13.530Z,17.20
2023-02-01T00:41:13.543Z,17.21
2023-02-01T00:42:13.600Z,17.20
2023-02-01T00:43:13.673Z,17.21
2023-02-01T00:44:13.705Z,17.22
2023-02-01T00:45:13.767Z,17.22
2023-02-01T00:46:13.802Z,17.23
2023-02-01T00:47:13.848Z,17.22
2023-02-01T00:48:13.889Z,17.22
2023-02-01T00:49:13.903Z,17.23
2023-02-01T00:50:13.906Z,17.22
2023-02-01T00:51:13.919Z,17.23
2023-02-01T00:52:13.925Z,17.23
2023-02-01T00:53:13.930Z,17.24
2023-02-01T00:54:13.924Z,17.25
2023-02-01T00:55:13.947Z,17.24
2023-02-01T00:56:14.013Z,17.23
2023-02-01T00:57:13.972Z,17.23
2023-02-01T00:58:13.960Z,17.25
2023-02-01T00:59:14.008Z,17.24
2023-02-01T01:00:13.992Z,17.24
2023-02-01T01:01:14.018Z,17.23
2023-02-01T01:02:13.993Z,17.24
2023-02-01T01:03:14.021Z,17.24
2023-02-01T01:04:14.036Z,17.24
2023-02-01T01:05:14.038Z,17.25
2023-02-01T01:06:14.033Z,17.25
2023-02-01T01:07:14.092Z,17.24
2023-02-01T01:08:14.102Z,17.23
2023-02-01T01:09:14.106Z,17.24
2023-02-01T01:10:14.108Z,17.24
2023-02-01T01:11:14.139Z,17.24
2023-02-01T01:12:14.127Z,17.22
2023-02-01T01:13:14.139Z,17.24
2023-02-01T01:14:14.102Z,17.24
2023-02-01T01:15:14.135Z,17.21
2023-02-01T01:16:14.135Z,17.23
2023-02-01T01:17:14.148Z,17.23
2023-02-01T01:18:14.114Z,17.23
2023-02-01T01:19:14.279Z,17.23
2023-02-01T01:20:14.168Z,17.23
2023-02-01T01:21:14.137Z,17.24
2023-02-01T01:22:14.202Z,17.21
2023-02-01T01:23:14.201Z,17.23
2023-02-01T01:24:14.212Z,17.23
2023-02-01T01:25:14.277Z,17.22
2023-02-01T01:26:14.290Z,17.22
2023-02-01T01:27:14.242Z,17.22
2023-02-01T01:28:14.269Z,17.22
2023-02-01T01:29:14.262Z,17.20
2023-02-01T01:30:14.251Z,17.21
2023-02-01T01:31:14.310Z,17.21
2023-02-01T01:32:14.290Z,17.19
2023-02-01T01:33:14.306Z,17.19
2023-02-01T01:34:14.315Z,17.19
2023-02-01T01:35:14.305Z,17.20
2023-02-01T01:36:14.340Z,17.21
2023-02-01T01:37:14.359Z,17.20
2023-02-01T01:38:14.351Z,17.20
2023-02-01T01:39:14.402Z,17.19
2023-02-01T01:40:14.371Z,17.20
2023-02-01T01:41:14.424Z,17.20
2023-02-01T01:42:14.432Z,17.17
2023-02-01T01:43:14.469Z,17.18
2023-02-01T01:44:14.473Z,17.17
2023-02-01T01:45:14.477Z,17.17
2023-02-01T01:46:14.482Z,17.18
2023-02-01T01:47:14.501Z,17.16
2023-02-01T01:48:14.513Z,17.15
2023-02-01T01:49:14.535Z,17.15
2023-02-01T01:50:14.556Z,17.15
2023-02-01T01:51:14.551Z,17.16
2023-02-01T01:52:14.546Z,17.16
2023-02-01T01:53:14.559Z,17.15
2023-02-01T01:54:14.592Z,17.15
2023-02-01T01:55:14.576Z,17.15
2023-02-01T01:56:14.627Z,17.15
2023-02-01T01:57:14.646Z,17.15
2023-02-01T01:58:14.660Z,17.13
2023-02-01T01:59:14.673Z,17.15
2023-02-01T02:00:14.700Z,17.14
2023-02-01T02:01:14.721Z,17.12
2023-02-01T02:02:14.766Z,17.14
2023-02-01T02:03:14.722Z,17.14
2023-02-01T02:04:14.749Z,17.12
2023-02-01T02:05:14.808Z,17.14
2023-02-01T02:06:14.824Z,17.12
2023-02-01T02:07:14.825Z,17.12
2023-02-01T02:08:14.861Z,17.13
2023-02-01T02:09:14.843Z,17.13
2023-02-01T02:10:14.875Z,17.13
2023-02-01T02:11:14.862Z,17.11
2023-02-01T02:12:14.905Z,17.12
2023-02-01T02:13:14.900Z,17.12
2023-02-01T02:14:14.942Z,17.12
2023-02-01T02:15:14.930Z,17.12
2023-02-01T02:16:14.967Z,17.12
2023-02-01T02:17:14.970Z,17.11
2023-02-01T02:18:14.940Z,17.10
2023-02-01T02:19:14.984Z,17.11
2023-02-01T02:20:14.980Z,17.11
2023-02-01T02:21:15.003Z,17.10
2023-02-01T02:22:15.040Z,17.09
2023-02-01T02:23:15.053Z,17.11
2023-02-01T02:24:15.059Z,17.09
2023-02-01T02:25:15.078Z,17.09
2023-02-01T02:26:15.103Z,17.09
2023-02-01T02:27:15.072Z,17.10
2023-02-01T02:28:15.111Z,17.09
2023-02-01T02:29:15.095Z,17.08
2023-02-01T02:30:15.130Z,17.07
2023-02-01T02:31:15.203Z,17.08
2023-02-01T02:32:15.491Z,17.08
2023-02-01T02:33:15.211Z,17.07
2023-02-01T02:34:15.192Z,17.08
2023-02-01T02:35:15.944Z,17.07
2023-02-01T02:36:15.228Z,17.07
2023-02-01T02:37:15.287Z,17.07
2023-02-01T02:38:15.261Z,17.05
2023-02-01T02:39:15.216Z,17.03
2023-02-01T02:40:15.269Z,17.05
2023-02-01T02:41:15.241Z,17.03
2023-02-01T02:42:15.267Z,17.03
2023-02-01T02:43:15.259Z,17.01
2023-02-01T02:44:15.260Z,17.01
2023-02-01T02:45:15.267Z,16.98
2023-02-01T02:46:15.263Z,16.97
2023-02-01T02:47:15.253Z,16.97
2023-02-01T02:48:15.252Z,16.97
2023-02-01T02:49:15.228Z,16.94
2023-02-01T02:50:15.246Z,16.94
2023-02-01T02:51:15.239Z,16.93
2023-02-01T02:52:15.254Z,16.92
2023-02-01T02:53:15.253Z,16.93
2023-02-01T02:54:15.269Z,16.89
2023-02-01T02:55:15.336Z,16.90
2023-02-01T02:56:15.401Z,16.89
2023-02-01T02:57:15.356Z,16.86
2023-02-01T02:58:15.387Z,16.87
2023-02-01T02:59:15.429Z,16.85
2023-02-01T03:00:15.435Z,16.83
2023-02-01T03:01:15.489Z,16.83
2023-02-01T03:02:15.615Z,16.81
2023-02-01T03:03:15.572Z,16.80
2023-02-01T03:04:15.645Z,16.80
2023-02-01T03:05:16.458Z,16.79
2023-02-01T03:16:16.368Z,16.67
2023-02-01T03:17:16.414Z,16.65
2023-02-01T03:18:16.470Z,16.65
2023-02-01T03:19:16.523Z,16.64
2023-02-01T03:20:16.569Z,16.63
2023-02-01T03:21:16.579Z,16.62
2023-02-01T03:22:16.661Z,16.60
2023-02-01T03:23:16.709Z,16.58
2023-02-01T03:24:16.778Z,16.59
2023-02-01T03:25:16.823Z,16.58
2023-02-01T03:26:16.855Z,16.57
2023-02-01T03:27:16.876Z,16.55
2023-02-01T03:28:16.896Z,16.54
2023-02-01T03:29:16.943Z,16.53
2023-02-01T03:30:16.947Z,16.52
2023-02-01T03:31:17.055Z,16.50
2023-02-01T03:32:17.121Z,16.51
2023-02-01T03:33:17.081Z,16.50
2023-02-01T03:34:17.076Z,16.50
2023-02-01T03:35:17.087Z,16.47
2023-02-01T03:36:17.169Z,16.45
2023-02-01T03:37:17.211Z,16.46
2023-02-01T03:38:17.222Z,16.45
2023-02-01T03:39:17.274Z,16.44
2023-02-01T03:40:17.280Z,16.44
2023-02-01T03:41:17.295Z,16.43
2023-02-01T03:42:17.314Z,16.41
2023-02-01T04:18:17.914Z,16.13
2023-02-01T04:19:17.935Z,16.14
2023-02-01T04:20:17.976Z,16.13
2023-02-01T04:21:18.009Z,16.14
2023-02-01T04:22:17.983Z,16.11
2023-02-01T04:23:17.993Z,16.12
2023-02-01T04:27:18.031Z,16.07
2023-02-01T04:28:17.978Z,16.09
2023-02-01T04:35:18.092Z,16.05
2023-02-01T04:36:18.114Z,16.04
2023-02-01T04:37:18.109Z,16.05
2023-02-01T04:38:18.118Z,16.03
2023-02-01T04:39:18.096Z,16.03
2023-02-01T04:40:18.096Z,16.01
2023-02-01T04:41:18.119Z,16.02
2023-02-01T04:42:18.149Z,16.01
2023-02-01T04:43:18.154Z,16.02
2023-02-01T04:44:18.188Z,16.01
2023-02-01T04:45:18.205Z,16.01
2023-02-01T04:48:18.234Z,16.01
2023-02-01T05:02:18.474Z,15.98
2023-02-01T05:03:18.463Z,15.98
2023-02-01T05:04:18.489Z,15.99
2023-02-01T05:05:18.498Z,16.00
2023-02-01T05:06:18.510Z,15.99
2023-02-01T05:07:18.547Z,15.99
2023-02-01T05:08:18.550Z,16.00
2023-02-01T05:09:18.573Z,16.00
2023-02-01T05:10:18.576Z,15.99
2023-02-01T05:11:18.629Z,15.98
2023-02-01T05:12:18.629Z,16.00
2023-02-01T05:13:18.666Z,15.98
2023-02-01T05:14:18.667Z,15.98
2023-02-01T05:15:18.727Z,15.98
2023-02-01T05:16:18.760Z,15.98
2023-02-01T05:17:18.785Z,15.98
2023-02-01T05:18:18.788Z,15.98
2023-02-01T05:19:18.849Z,15.99
2023-02-01T05:20:18.858Z,15.99
2023-02-01T05:21:18.868Z,15.97
2023-02-01T05:22:18.928Z,15.99
2023-02-01T05:23:18.928Z,15.98
2023-02-01T05:24:18.955Z,15.99
2023-02-01T05:25:18.986Z,15.98
2023-02-01T05:26:19.029Z,15.98
2023-02-01T05:27:19.106Z,15.98
2023-02-01T05:28:19.073Z,15.98
2023-02-01T05:29:19.108Z,15.98
2023-02-01T05:30:19.112Z,15.97
2023-02-01T05:31:19.359Z,15.97
2023-02-01T05:32:22.517Z,15.96
2023-02-01T05:33:19.121Z,15.97
2023-02-01T05:34:19.110Z,15.97
2023-02-01T05:35:19.197Z,15.96
2023-02-01T05:36:19.140Z,15.97
2023-02-01T05:37:19.133Z,15.95
2023-02-01T05:38:19.109Z,15.95
2023-02-01T05:39:19.120Z,15.95
2023-02-01T05:40:19.096Z,15.95
2023-02-01T05:41:19.065Z,15.94
2023-02-01T05:42:19.092Z,15.95
2023-02-01T05:43:19.092Z,15.93
2023-02-01T05:44:19.068Z,15.93
2023-02-01T05:45:19.065Z,15.93
2023-02-01T05:46:19.229Z,15.93
2023-02-01T05:47:19.090Z,15.94
2023-02-01T05:48:19.020Z,15.94
2023-02-01T05:49:19.033Z,15.95
2023-02-01T05:50:19.038Z,15.94
2023-02-01T05:51:19.029Z,15.94
2023-02-01T05:52:19.026Z,15.94
2023-02-01T05:53:18.988Z,15.93
2023-02-01T05:54:18.984Z,15.93
2023-02-01T05:55:19.010Z,15.93
2023-02-01T05:56:18.981Z,15.93
2023-02-01T05:57:18.998Z,15.93
2023-02-01T05:58:18.984Z,15.93
2023-02-01T05:59:18.957Z,15.92
2023-02-01T06:00:27.832Z,15.91
2023-02-01T06:01:25.959Z,15.92
2023-02-01T06:02:18.988Z,15.92
2023-02-01T06:03:18.929Z,15.92
2023-02-01T06:04:18.903Z,15.91
2023-02-01T06:05:18.908Z,15.91
2023-02-01T06:06:18.920Z,15.91
2023-02-01T06:07:18.885Z,15.91
2023-02-01T06:08:18.931Z,15.91
2023-02-01T06:09:18.927Z,15.90
2023-02-01T06:10:18.895Z,15.90
2023-02-01T06:11:31.862Z,15.90
2023-02-01T06:12:19.852Z,15.89
2023-02-01T06:13:18.830Z,15.89
2023-02-01T06:14:18.845Z,15.88
2023-02-01T06:15:18.843Z,15.88
2023-02-01T06:16:18.926Z,15.87
2023-02-01T06:17:18.842Z,15.86
2023-02-01T06:18:18.983Z,15.84
2023-02-01T06:19:18.791Z,15.85
2023-02-01T06:20:18.794Z,15.85
2023-02-01T06:21:18.822Z,15.85
2023-02-01T06:22:18.796Z,15.87
2023-02-01T06:23:18.802Z,15.85
2023-02-01T06:24:18.788Z,15.84
2023-02-01T06:25:18.753Z,15.84
2023-02-01T06:26:18.842Z,15.83
2023-02-01T06:27:18.753Z,15.84
2023-02-01T06:28:18.769Z,15.89
2023-02-01T06:29:18.729Z,15.93
2023-02-01T06:30:18.769Z,16.07
2023-02-01T06:31:18.912Z,16.10
2023-02-01T06:32:18.818Z,16.34
2023-02-01T06:33:19.093Z,16.98
2023-02-01T06:34:21.827Z,18.13
2023-02-01T06:35:18.957Z,17.59
2023-02-01T06:36:18.917Z,17.25
2023-02-01T06:37:18.928Z,16.49
2023-02-01T06:38:19.608Z,16.33
2023-02-01T06:39:18.899Z,16.89
2023-02-01T06:40:18.894Z,17.59
2023-02-01T06:41:18.902Z,17.77
2023-02-01T06:42:18.894Z,18.63
2023-02-01T06:43:19.122Z,19.13
2023-02-01T06:44:18.863Z,20.03
2023-02-01T06:45:25.864Z,20.53
2023-02-01T06:46:19.693Z,20.21
2023-02-01T06:47:18.895Z,20.19
2023-02-01T06:48:18.860Z,19.68
2023-02-01T06:49:18.842Z,19.88
2023-02-01T06:50:18.850Z,19.91
2023-02-01T06:51:18.814Z,20.08
2023-02-01T06:52:18.817Z,20.22
2023-02-01T06:53:18.820Z,20.27
2023-02-01T06:54:18.821Z,20.35
2023-02-01T06:55:18.782Z,20.56
2023-02-01T06:56:18.936Z,20.76
2023-02-01T06:57:18.818Z,20.68
2023-02-01T06:58:18.797Z,20.71
2023-02-01T06:59:18.834Z,20.83
2023-02-01T07:00:18.763Z,20.84
2023-02-01T07:01:18.781Z,21.00
2023-02-01T07:02:19.682Z,21.04
2023-02-01T07:03:19.146Z,21.12
2023-02-01T07:04:18.715Z,21.11
2023-02-01T07:05:18.741Z,21.14
2023-02-01T07:06:18.740Z,21.27
2023-02-01T07:07:18.721Z,21.27
2023-02-01T07:08:18.711Z,21.41
2023-02-01T07:09:18.679Z,21.46
2023-02-01T07:10:18.669Z,21.56
2023-02-01T07:11:18.697Z,21.53
2023-02-01T07:12:18.658Z,21.66
2023-02-01T07:13:18.680Z,21.57
2023-02-01T07:14:18.694Z,21.64
2023-02-01T07:15:18.665Z,21.74
2023-02-01T07:16:18.645Z,21.80
2023-02-01T07:17:18.668Z,21.94
2023-02-01T07:18:18.678Z,22.12
2023-02-01T07:19:18.622Z,22.17
2023-02-01T07:20:18.577Z,22.20
2023-02-01T07:21:18.612Z,22.36
2023-02-01T07:22:18.608Z,22.38
2023-02-01T07:23:18.609Z,22.34
2023-02-01T07:24:18.584Z,22.37
2023-02-01T07:25:18.583Z,22.47
2023-02-01T07:26:18.636Z,22.55
2023-02-01T07:27:18.642Z,22.56
2023-02-01T07:28:18.744Z,22.67
2023-02-01T07:29:18.761Z,22.73
2023-02-01T07:30:18.826Z,22.73
2023-02-01T07:31:18.866Z,22.78
2023-02-01T07:32:19.030Z,22.78
2023-02-01T07:33:18.993Z,22.81
2023-02-01T07:34:18.992Z,22.80
2023-02-01T07:35:19.030Z,23.08
2023-02-01T07:36:19.050Z,21.82
2023-02-01T07:37:19.074Z,18.93
2023-02-01T07:38:19.174Z,20.41
2023-02-01T07:39:19.151Z,20.98
2023-02-01T07:40:19.242Z,20.25
2023-02-01T07:41:19.205Z,21.04
2023-02-01T07:42:19.214Z,21.43
2023-02-01T07:43:19.209Z,21.67
2023-02-01T07:44:19.255Z,21.80
2023-02-01T07:45:21.581Z,21.85
2023-02-01T07:46:19.448Z,21.87
2023-02-01T07:47:19.392Z,21.70
2023-02-01T07:48:19.423Z,21.28
2023-02-01T07:49:19.474Z,20.75
2023-02-01T07:50:19.477Z,19.86
2023-02-01T07:51:19.538Z,19.19
2023-02-01T07:52:19.539Z,18.62
2023-02-01T07:53:19.567Z,17.66
2023-02-01T07:54:19.586Z,17.64
2023-02-01T07:55:19.585Z,17.82
2023-02-01T07:56:19.583Z,18.14
2023-02-01T07:57:19.592Z,18.24
2023-02-01T07:58:19.602Z,18.35
2023-02-01T07:59:19.609Z,18.59
2023-02-01T08:00:19.625Z,18.73
2023-02-01T08:01:19.751Z,18.89
2023-02-01T08:02:19.685Z,19.01
2023-02-01T08:03:19.652Z,19.06
2023-02-01T08:04:19.656Z,18.92
2023-02-01T08:05:19.676Z,18.94
2023-02-01T08:06:19.680Z,19.16
2023-02-01T08:07:19.733Z,19.33
2023-02-01T08:08:20.200Z,19.65
2023-02-01T08:09:19.781Z,19.78
2023-02-01T08:10:19.756Z,19.87
2023-02-01T08:11:19.805Z,20.12
2023-02-01T08:12:19.858Z,20.11
2023-02-01T08:13:19.911Z,20.38
2023-02-01T08:14:19.997Z,20.45
2023-02-01T08:15:19.946Z,20.59
2023-02-01T08:16:20.030Z,20.66
2023-02-01T08:17:20.006Z,20.69
2023-02-01T08:18:19.965Z,20.75
2023-02-01T08:19:20.030Z,20.88
2023-02-01T08:20:20.050Z,20.93
2023-02-01T08:21:20.049Z,20.95
2023-02-01T08:22:20.085Z,20.98
2023-02-01T08:23:20.114Z,20.98
2023-02-01T08:24:20.186Z,20.99
2023-02-01T08:25:20.178Z,21.07
2023-02-01T08:26:20.300Z,21.12
2023-02-01T08:27:20.235Z,20.95
2023-02-01T08:28:20.278Z,21.15
2023-02-01T08:29:20.346Z,21.19
2023-02-01T08:30:20.489Z,21.34
2023-02-01T08:31:20.444Z,21.23
2023-02-01T08:32:20.433Z,21.33
2023-02-01T08:33:20.462Z,21.30
2023-02-01T08:34:20.546Z,21.13
2023-02-01T08:35:22.307Z,21.20
2023-02-01T08:36:20.499Z,20.77
2023-02-01T08:37:20.550Z,20.25
2023-02-01T08:38:20.499Z,20.00
2023-02-01T08:39:20.487Z,20.01
2023-02-01T08:40:20.608Z,19.82
2023-02-01T08:41:20.476Z,20.06
2023-02-01T08:42:20.477Z,18.17
2023-02-01T08:43:20.513Z,20.14
2023-02-01T08:44:20.499Z,21.95
2023-02-01T08:45:20.437Z,22.74
2023-02-01T08:46:20.657Z,22.57
2023-02-01T08:47:20.454Z,22.19
2023-02-01T08:48:20.427Z,21.95
2023-02-01T08:49:20.418Z,21.55
2023-02-01T08:50:20.469Z,21.29
2023-02-01T08:51:20.425Z,21.18
2023-02-01T08:52:20.410Z,20.94
2023-02-01T08:53:20.405Z,20.70
2023-02-01T08:54:20.692Z,20.49
2023-02-01T08:55:20.419Z,20.25
2023-02-01T08:56:20.368Z,20.16
2023-02-01T08:57:20.375Z,20.04
2023-02-01T08:58:20.393Z,19.95
2023-02-01T08:59:20.351Z,19.78
2023-02-01T09:00:20.334Z,19.71
2023-02-01T09:01:20.403Z,19.62
2023-02-01T09:02:20.424Z,19.43
2023-02-01T09:03:20.352Z,19.36
2023-02-01T09:04:20.753Z,19.28
2023-02-01T09:06:20.320Z,19.11
2023-02-01T09:07:20.345Z,19.05
2023-02-01T09:08:20.281Z,19.00
2023-02-01T09:09:20.278Z,18.92
2023-02-01T09:10:33.523Z,18.84
2023-02-01T09:12:20.370Z,18.76
2023-02-01T09:13:20.276Z,18.72
2023-02-01T09:14:20.286Z,18.68
2023-02-01T09:15:20.328Z,18.59
2023-02-01T09:16:20.343Z,18.59
2023-02-01T09:17:20.242Z,18.58
2023-02-01T09:18:20.244Z,18.52
2023-02-01T09:19:26.253Z,18.47
2023-02-01T09:20:21.406Z,18.45
2023-02-01T09:21:20.211Z,18.45
2023-02-01T09:22:20.222Z,18.43
2023-02-01T09:23:20.249Z,18.42
2023-02-01T09:24:20.185Z,18.39
2023-02-01T09:25:20.230Z,18.36
2023-02-01T09:26:26.513Z,18.28
2023-02-01T09:27:21.192Z,18.29
2023-02-01T09:28:20.197Z,18.27
2023-02-01T09:29:20.245Z,18.26
2023-02-01T09:30:20.191Z,18.22
2023-02-01T09:31:20.356Z,18.19
2023-02-01T09:32:20.201Z,18.22
2023-02-01T09:33:20.102Z,18.21
2023-02-01T09:34:20.162Z,18.17
2023-02-01T09:35:20.124Z,18.17
2023-02-01T09:36:20.128Z,18.14
2023-02-01T09:37:20.199Z,18.13
2023-02-01T09:38:20.084Z,18.11
2023-02-01T09:39:20.304Z,18.11
2023-02-01T09:40:20.121Z,18.11
2023-02-01T09:41:20.091Z,18.06
2023-02-01T09:42:20.073Z,18.07
2023-02-01T09:43:20.064Z,18.02
2023-02-01T09:44:20.085Z,18.02
2023-02-01T09:45:20.096Z,18.02
2023-02-01T09:46:20.126Z,18.01
2023-02-01T09:47:20.106Z,18.02
2023-02-01T09:48:20.112Z,18.01
2023-02-01T09:49:20.171Z,18.00
2023-02-01T09:50:20.140Z,17.94
2023-02-01T09:51:20.055Z,17.91
2023-02-01T09:52:20.110Z,17.94
2023-02-01T09:53:20.062Z,17.94
2023-02-01T09:54:20.099Z,17.94
2023-02-01T09:55:20.105Z,17.95
2023-02-01T09:57:20.168Z,17.89
2023-02-01T09:58:20.175Z,17.89
2023-02-01T09:59:20.202Z,17.86
2023-02-01T10:00:20.186Z,17.86
2023-02-01T10:01:20.247Z,17.88
2023-02-01T10:02:20.195Z,17.86
2023-02-01T10:03:20.212Z,17.82
2023-02-01T10:04:20.211Z,17.77
2023-02-01T10:05:20.241Z,17.85
2023-02-01T10:06:20.221Z,17.84
2023-02-01T10:07:20.281Z,17.82
2023-02-01T10:08:20.279Z,17.80
2023-02-01T10:09:20.275Z,17.81
2023-02-01T10:10:20.284Z,17.76
2023-02-01T10:11:20.282Z,17.78
2023-02-01T10:12:20.342Z,17.76
2023-02-01T10:13:20.311Z,17.76
2023-02-01T10:14:20.331Z,17.76
2023-02-01T10:15:20.382Z,17.76
2023-02-01T10:16:20.461Z,17.73
2023-02-01T10:17:20.399Z,17.70
2023-02-01T10:18:20.350Z,17.71
2023-02-01T10:19:20.408Z,17.70
2023-02-01T10:20:20.427Z,17.70
2023-02-01T10:21:20.426Z,17.67
2023-02-01T10:22:20.380Z,17.68
2023-02-01T10:23:33.367Z,17.64
2023-02-01T10:25:20.411Z,17.59
2023-02-01T10:26:20.443Z,17.64
2023-02-01T10:27:20.395Z,17.62
2023-02-01T10:28:20.391Z,17.61
2023-02-01T10:29:20.340Z,17.62
2023-02-01T10:30:20.536Z,17.60
2023-02-01T10:31:20.425Z,17.59
2023-02-01T10:32:20.352Z,17.56
2023-02-01T10:33:20.316Z,17.58
2023-02-01T10:34:20.370Z,17.55
2023-02-01T10:35:20.339Z,17.55
2023-02-01T10:36:20.340Z,17.55
2023-02-01T10:37:20.351Z,17.60
2023-02-01T10:38:20.282Z,18.34
2023-02-01T10:39:20.273Z,21.62
2023-02-01T10:40:20.404Z,21.21
2023-02-01T10:41:20.320Z,20.70
2023-02-01T10:42:20.245Z,20.14
2023-02-01T10:43:20.280Z,20.29
2023-02-01T10:44:20.229Z,17.93
2023-02-01T10:45:20.286Z,17.60
2023-02-01T10:46:20.414Z,18.19
2023-02-01T10:47:20.242Z,19.16
2023-02-01T10:48:20.257Z,19.39
2023-02-01T10:49:20.209Z,19.51
2023-02-01T10:50:20.223Z,20.12
2023-02-01T10:51:20.225Z,20.13
2023-02-01T10:52:20.228Z,20.28
2023-02-01T10:53:20.180Z,20.41
2023-02-01T10:54:20.184Z,20.41
2023-02-01T10:55:20.772Z,20.65
2023-02-01T10:56:20.302Z,20.67
2023-02-01T10:57:20.341Z,20.84
2023-02-01T10:58:20.356Z,20.86
2023-02-01T10:59:20.350Z,20.84
2023-02-01T11:00:20.559Z,20.91
2023-02-01T11:01:20.400Z,21.01
2023-02-01T11:02:20.409Z,21.07
2023-02-01T11:03:20.403Z,21.12
2023-02-01T11:04:20.421Z,21.12
2023-02-01T11:05:20.425Z,21.06
2023-02-01T11:06:20.447Z,21.11
2023-02-01T11:07:20.451Z,21.19
2023-02-01T11:08:20.439Z,21.29
2023-02-01T11:09:20.481Z,21.40
2023-02-01T11:10:20.461Z,21.54
2023-02-01T11:11:20.591Z,21.60
2023-02-01T11:12:20.473Z,21.72
2023-02-01T11:28:20.543Z,20.28
2023-02-01T13:15:22.543Z,17.43
2023-02-01T13:16:22.532Z,17.37
2023-02-01T13:17:22.553Z,17.22
2023-02-01T13:18:22.602Z,17.19
2023-02-01T13:19:22.644Z,17.17
2023-02-01T13:20:23.044Z,17.10
2023-02-01T13:21:22.749Z,17.14
2023-02-01T13:22:22.772Z,17.07
2023-02-01T13:23:22.821Z,17.02
2023-02-01T13:24:22.881Z,17.00
2023-02-01T13:25:23.265Z,16.96
2023-02-01T13:26:22.976Z,16.92
2023-02-01T13:27:23.022Z,16.91
2023-02-01T13:28:23.068Z,17.33
2023-02-01T13:29:23.147Z,18.39
2023-02-01T13:30:23.182Z,17.69
2023-02-01T13:31:23.354Z,17.76
2023-02-01T13:32:23.317Z,17.86
2023-02-01T13:33:54.012Z,17.84
2023-02-01T13:34:24.277Z,20.01
2023-02-01T13:35:23.484Z,24.14
2023-02-01T13:36:23.400Z,22.59
2023-02-01T13:37:23.252Z,26.49
2023-02-01T13:38:23.235Z,26.05
2023-02-01T13:39:23.197Z,27.17
2023-02-01T13:40:23.230Z,31.73
2023-02-01T13:41:23.227Z,26.11
2023-02-01T13:42:23.195Z,24.47
2023-02-01T13:43:23.207Z,23.96
2023-02-01T13:44:23.232Z,24.10
2023-02-01T13:45:23.502Z,24.18
2023-02-01T13:46:23.320Z,24.50
2023-02-01T13:47:23.155Z,24.33
2023-02-01T13:48:23.158Z,24.91
2023-02-01T13:49:23.192Z,25.14
2023-02-01T13:50:23.151Z,24.51
2023-02-01T13:51:23.120Z,25.13
2023-02-01T13:52:23.141Z,24.74
2023-02-01T13:53:23.213Z,24.79
2023-02-01T13:54:23.125Z,24.76
2023-02-01T13:55:23.547Z,24.80
2023-02-01T13:56:23.117Z,24.90
2023-02-01T13:57:23.089Z,24.44
2023-02-01T13:58:23.136Z,24.50
2023-02-01T13:59:23.105Z,24.57
2023-02-01T14:00:23.115Z,24.52
2023-02-01T14:01:23.118Z,24.50
2023-02-01T14:02:23.070Z,24.82
2023-02-01T14:03:23.090Z,24.62
2023-02-01T14:04:23.132Z,24.54
2023-02-01T14:05:23.528Z,24.76
2023-02-01T14:06:23.118Z,24.64
2023-02-01T14:07:23.142Z,24.50
2023-02-01T14:08:23.187Z,24.38
2023-02-01T14:09:23.307Z,24.23
2023-02-01T14:10:23.449Z,24.29
2023-02-01T14:11:23.263Z,24.23
2023-02-01T14:12:23.253Z,24.15
2023-02-01T14:13:23.303Z,24.13
2023-02-01T14:14:23.330Z,24.03
2023-02-01T14:15:23.543Z,24.04
2023-02-01T14:16:23.360Z,23.90
2023-02-01T14:17:23.456Z,23.80
2023-02-01T14:18:23.397Z,23.75
2023-02-01T14:19:23.453Z,23.67
2023-02-01T14:20:23.800Z,23.58
2023-02-01T14:21:24.208Z,23.55
2023-02-01T14:22:23.506Z,23.43
2023-02-01T14:23:23.554Z,23.38
2023-02-01T14:24:23.638Z,23.37
2023-02-01T14:25:24.137Z,23.35
2023-02-01T14:26:23.688Z,23.28
2023-02-01T14:27:23.649Z,23.18
2023-02-01T14:28:23.697Z,23.10
2023-02-01T14:29:23.713Z,23.07
2023-02-01T14:30:24.186Z,23.02
2023-02-01T14:31:23.850Z,22.98
2023-02-01T14:32:23.762Z,22.97
2023-02-01T14:33:23.845Z,22.93
2023-02-01T14:34:23.858Z,22.86
2023-02-01T14:35:24.165Z,22.82
2023-02-01T14:36:23.905Z,22.77
2023-02-01T14:37:23.869Z,22.73
2023-02-01T14:38:23.952Z,22.65
2023-02-01T14:39:23.940Z,22.59
2023-02-01T14:41:23.997Z,22.46
2023-02-01T14:42:24.011Z,22.41
2023-02-01T14:43:32.921Z,22.32
2023-02-01T14:44:25.050Z,22.28
2023-02-01T14:45:24.821Z,22.22
2023-02-01T14:46:24.063Z,22.18
2023-02-01T14:47:24.039Z,22.09
2023-02-01T14:48:23.977Z,22.06
2023-02-01T14:49:23.985Z,21.98
2023-02-01T14:50:23.963Z,21.92
2023-02-01T14:51:24.006Z,21.90
2023-02-01T14:52:23.976Z,21.84
2023-02-01T14:53:23.945Z,21.81
2023-02-01T14:54:23.920Z,21.72
2023-02-01T14:55:24.281Z,21.67
2023-02-01T14:56:23.941Z,21.60
2023-02-01T14:57:23.938Z,21.57
2023-02-01T14:58:23.919Z,21.58
2023-02-01T14:59:23.913Z,21.53
2023-02-01T15:00:23.927Z,21.44
2023-02-01T15:01:24.005Z,21.36
2023-02-01T15:02:23.934Z,21.34
2023-02-01T15:03:23.923Z,21.28
2023-02-01T15:04:24.010Z,21.24
2023-02-01T15:05:24.369Z,21.18
2023-02-01T15:06:24.020Z,21.15
2023-02-01T15:07:24.019Z,21.12
2023-02-01T15:08:24.055Z,21.08
2023-02-01T15:09:24.042Z,21.06
2023-02-01T15:10:24.362Z,21.03
2023-02-01T15:11:24.163Z,20.97
2023-02-01T15:12:24.146Z,20.93
2023-02-01T15:13:24.179Z,20.93
2023-02-01T15:14:24.207Z,20.84
2023-02-01T15:15:24.674Z,20.76
2023-02-01T15:16:24.290Z,20.75
2023-02-01T15:17:24.273Z,20.62
2023-02-01T15:18:24.320Z,20.67
2023-02-01T15:19:24.319Z,20.62
2023-02-01T15:20:24.328Z,20.61
2023-02-01T15:21:28.740Z,20.59
2023-02-01T15:22:25.289Z,20.56
2023-02-01T15:23:24.328Z,20.52
2023-02-01T15:24:24.294Z,20.48
2023-02-01T15:25:24.538Z,20.50
2023-02-01T15:26:24.332Z,20.48
2023-02-01T15:27:24.284Z,20.50
2023-02-01T15:28:24.242Z,20.47
2023-02-01T15:29:24.227Z,20.41
2023-02-01T15:30:24.263Z,20.37
2023-02-01T15:31:24.404Z,20.36
2023-02-01T15:32:24.308Z,20.30
2023-02-01T15:33:24.253Z,20.30
2023-02-01T15:34:24.221Z,20.26
2023-02-01T15:35:24.569Z,20.16
2023-02-01T15:36:24.194Z,20.18
2023-02-01T15:37:24.211Z,20.18
2023-02-01T15:38:24.226Z,20.18
2023-02-01T15:39:24.197Z,20.15
2023-02-01T15:40:24.178Z,20.08
2023-02-01T15:41:24.175Z,20.06
2023-02-01T15:42:24.170Z,20.00
2023-02-01T15:43:24.147Z,20.00
2023-02-01T15:44:24.189Z,19.93
2023-02-01T15:45:24.613Z,19.85
2023-02-01T15:46:24.190Z,19.81
2023-02-01T15:47:24.170Z,19.81
2023-02-01T15:48:24.152Z,19.78
2023-02-01T15:49:24.151Z,19.82
2023-02-01T15:50:25.326Z,19.79
2023-02-01T15:51:24.110Z,19.63
2023-02-01T15:52:24.116Z,19.65
2023-02-01T15:53:24.108Z,19.68
2023-02-01T15:54:24.190Z,19.62
2023-02-01T15:55:24.503Z,19.57
2023-02-01T15:56:24.173Z,19.49
2023-02-01T15:57:24.191Z,19.45
2023-02-01T15:58:24.192Z,19.44
2023-02-01T15:59:24.206Z,19.47
2023-02-01T16:00:24.209Z,19.39
2023-02-01T16:01:24.259Z,19.43
2023-02-01T16:02:24.250Z,19.26
2023-02-01T16:03:24.262Z,19.31
2023-02-01T16:04:24.304Z,19.34
2023-02-01T16:05:24.591Z,19.23
2023-02-01T16:06:24.347Z,19.17
2023-02-01T16:07:24.371Z,19.19